PHTO/ITO METAR and TAF weather

Enter ICAO airport designator
Station Type Date Time Source
PHTO METAR 2023/02/06 00:53 UTC NOAA

PHTO 060053Z 23003KT 10SM FEW022 SCT047 BKN085 24/21 A3009 RMK AO2 SLP188 T02440211 $


Station Type Date Time Source
PHTO Decoded METAR 2023/02/06 00:53 UTC NOAA

HILO INTERNATIONAL AIRPORT, HI, United States (PHTO) 19-43N 155-03W 12M
Feb 05, 2023 - 07:53 PM EST / 2023.02.06 0053 UTC
Wind: from the SW (230 degrees) at 3 MPH (3 KT):0
Visibility: 10 mile(s):0
Sky conditions: mostly cloudy
Temperature: 75.9 F (24.4 C)
Dew Point: 70.0 F (21.1 C)
Relative Humidity: 81%
Pressure (altimeter): 30.09 in. Hg (1018 hPa)
ob: PHTO 060053Z 23003KT 10SM FEW022 SCT047 BKN085 24/21 A3009 RMK AO2 SLP188 T02440211
cycle: 1

Station Type Date Time Source
PHTO TAF 2023/02/05 18:42 UTC NOAA

TAF PHTO 051739Z 0518/0618 25006KT P6SM VCSH SCT025 BKN040
FM052000 05010KT P6SM VCSH SCT025 BKN045
FM060500 24006KT P6SM VCSH SCT025 BKN035

Example: see airport list